createdAt,value
2022-08-01T00:04:11.215Z,96198.78
2022-08-01T00:09:24.300Z,96203.88
2022-08-01T00:14:32.051Z,96202.56
2022-08-01T00:19:36.198Z,96199.03
2022-08-01T00:24:40.383Z,96205.25
2022-08-01T00:30:10.877Z,96206.16
2022-08-01T00:35:06.444Z,96208.75
2022-08-01T00:40:11.283Z,96207.34
2022-08-01T00:45:14.413Z,96206.34
2022-08-01T00:50:17.274Z,96203.09
2022-08-01T00:55:21.831Z,96203.19
2022-08-01T01:00:27.324Z,96209.19
2022-08-01T01:05:34.581Z,96208.22
2022-08-01T01:10:48.392Z,96204.41
2022-08-01T01:15:57.309Z,96210.19
2022-08-01T01:21:15.865Z,96205.16
2022-08-01T01:26:34.334Z,96202.75
2022-08-01T01:31:46.489Z,96206.69
2022-08-01T01:36:50.320Z,96210.63
2022-08-01T01:41:55.657Z,96204.16
2022-08-01T01:47:02.152Z,96215.41
2022-08-01T01:52:06.740Z,96219.13
2022-08-01T01:57:13.791Z,96221.78
2022-08-01T02:02:18.703Z,96214.06
2022-08-01T02:07:24.664Z,96215.31
2022-08-01T02:12:28.058Z,96211.03
2022-08-01T02:17:33.366Z,96225.94
2022-08-01T02:22:41.748Z,96219.00
2022-08-01T02:27:48.689Z,96210.44
2022-08-01T02:32:57.274Z,96216.94
2022-08-01T02:38:02.109Z,96217.78
2022-08-01T02:43:07.358Z,96221.44
2022-08-01T02:48:15.165Z,96228.38
2022-08-01T02:53:21.802Z,96223.91
2022-08-01T02:58:29.460Z,96214.91
2022-08-01T03:03:36.339Z,96208.00
2022-08-01T03:08:40.526Z,96210.63
2022-08-01T03:13:46.998Z,96215.31
2022-08-01T03:18:52.298Z,96206.28
2022-08-01T03:23:58.111Z,96202.59
2022-08-01T03:29:07.358Z,96206.72
2022-08-01T03:34:11.963Z,96199.75
2022-08-01T03:39:16.143Z,96205.44
2022-08-01T03:44:24.979Z,96205.59
2022-08-01T03:49:33.954Z,96209.91
2022-08-01T03:54:39.550Z,96214.00
2022-08-01T03:59:43.347Z,96216.41
2022-08-01T04:04:47.710Z,96207.84
2022-08-01T04:09:50.641Z,96209.34
2022-08-01T04:14:53.453Z,96220.09
2022-08-01T04:19:57.660Z,96212.09
2022-08-01T04:25:02.720Z,96212.50
2022-08-01T04:30:07.710Z,96213.97
2022-08-01T04:35:23.413Z,96218.44
2022-08-01T04:40:41.410Z,96221.50
2022-08-01T04:45:45.660Z,96219.25
2022-08-01T04:50:49.851Z,96232.41
2022-08-01T04:55:52.693Z,96223.44
2022-08-01T05:00:55.575Z,96231.63
2022-08-01T05:05:59.829Z,96226.38
2022-08-01T05:11:03.208Z,96227.44
2022-08-01T05:16:08.196Z,96228.75
2022-08-01T05:21:12.661Z,96228.78
2022-08-01T05:26:15.879Z,96235.94
2022-08-01T05:31:18.750Z,96233.94
2022-08-01T05:36:22.964Z,96239.84
2022-08-01T05:41:25.866Z,96241.72
2022-08-01T05:46:28.744Z,96243.59
2022-08-01T05:51:33.171Z,96241.78
2022-08-01T05:56:36.114Z,96237.72
2022-08-01T06:01:39.013Z,96236.13
2022-08-01T06:06:43.326Z,96256.91
2022-08-01T06:11:46.191Z,96244.28
2022-08-01T06:16:49.062Z,96246.91
2022-08-01T06:21:53.293Z,96241.22
2022-08-01T06:26:56.151Z,96245.88
2022-08-01T06:31:58.958Z,96247.25
2022-08-01T06:37:06.796Z,96251.53
2022-08-01T06:42:11.240Z,96252.50
2022-08-01T06:47:14.274Z,96259.59
2022-08-01T06:52:18.422Z,96255.44
2022-08-01T06:57:21.263Z,96250.31
2022-08-01T07:02:24.606Z,96247.78
2022-08-01T07:07:29.084Z,96247.25
2022-08-01T07:12:31.765Z,96243.69
2022-08-01T07:17:34.733Z,96246.84
2022-08-01T07:22:39.110Z,96248.38
2022-08-01T07:27:41.711Z,96247.38
2022-08-01T07:32:44.546Z,96246.16
2022-08-01T07:37:49.493Z,96239.28
2022-08-01T07:42:52.451Z,96237.06
2022-08-01T07:47:55.361Z,96237.31
2022-08-01T07:52:59.980Z,96227.03
2022-08-01T07:58:02.807Z,96232.47
2022-08-01T08:03:05.748Z,96237.09
2022-08-01T08:08:11.224Z,96232.38
2022-08-01T08:13:14.421Z,96236.72
2022-08-01T08:18:17.249Z,96232.94
2022-08-01T08:23:43.081Z,96224.59
2022-08-01T08:28:47.420Z,96228.56
2022-08-01T08:33:50.243Z,96229.59
2022-08-01T08:38:54.445Z,96220.22
2022-08-01T08:43:58.488Z,96219.44
2022-08-01T08:49:01.900Z,96210.94
2022-08-01T08:54:08.047Z,96209.72
2022-08-01T08:59:14.268Z,96216.44
2022-08-01T09:04:17.109Z,96205.00
2022-08-01T09:09:21.375Z,96196.06
2022-08-01T09:14:26.652Z,96203.09
2022-08-01T09:19:39.717Z,96196.44
2022-08-01T09:24:59.510Z,96198.91
2022-08-01T09:30:14.064Z,96194.59
2022-08-01T09:35:29.801Z,96196.38
2022-08-01T09:40:47.309Z,96197.97
2022-08-01T09:45:53.384Z,96200.38
2022-08-01T09:51:03.894Z,96195.56
2022-08-01T09:56:13.239Z,96187.75
2022-08-01T10:01:16.239Z,96176.25
2022-08-01T10:06:24.791Z,96181.78
2022-08-01T10:11:36.491Z,96178.09
2022-08-01T10:16:41.474Z,96170.94
2022-08-01T10:21:58.369Z,96151.00
2022-08-01T10:27:08.249Z,96158.03
2022-08-01T10:32:12.160Z,96146.91
2022-08-01T10:37:16.893Z,96153.63
2022-08-01T10:42:21.606Z,96150.47
2022-08-01T10:47:50.658Z,96128.88
2022-08-01T10:53:15.301Z,96128.16
2022-08-01T10:58:29.909Z,96117.50
2022-08-01T11:03:56.026Z,96108.63
2022-08-01T11:09:00.846Z,96107.44
2022-08-01T11:14:10.474Z,96087.84
2022-08-01T11:19:13.465Z,96089.50
2022-08-01T11:24:16.294Z,96086.34
2022-08-01T11:29:22.366Z,96076.72
2022-08-01T11:34:54.579Z,96071.91
2022-08-01T11:40:16.749Z,96068.69
2022-08-01T11:45:21.890Z,96048.25
2022-08-01T11:50:35.711Z,96050.13
2022-08-01T11:55:38.535Z,96044.22
2022-08-01T12:00:44.040Z,96035.31
2022-08-01T12:05:49.952Z,96034.19
2022-08-01T12:10:52.798Z,96030.41
2022-08-01T12:16:11.381Z,96031.69
2022-08-01T12:21:14.173Z,96030.28
2022-08-01T12:26:29.175Z,96032.41
2022-08-01T12:31:36.926Z,96033.44
2022-08-01T12:36:39.833Z,96021.03
2022-08-01T12:41:45.376Z,96029.16
2022-08-01T12:46:49.836Z,96027.44
2022-08-01T12:51:57.110Z,96026.84
2022-08-01T12:57:00.495Z,96029.53
2022-08-01T13:02:12.119Z,96020.88
2022-08-01T13:07:15.016Z,96019.09
2022-08-01T13:12:17.927Z,96016.03
2022-08-01T13:17:33.467Z,96006.22
2022-08-01T13:22:37.112Z,96018.78
2022-08-01T13:27:40.884Z,96017.09
2022-08-01T13:33:01.816Z,96011.75
2022-08-01T13:38:04.609Z,96006.81
2022-08-01T13:43:07.447Z,96005.41
2022-08-01T13:48:18.675Z,96002.69
2022-08-01T13:53:21.929Z,95993.25
2022-08-01T13:58:25.057Z,96007.81
2022-08-01T14:03:33.316Z,96003.59
2022-08-01T14:08:36.820Z,95993.41
2022-08-01T14:13:45.291Z,95994.38
2022-08-01T14:18:51.228Z,95997.47
2022-08-01T14:23:54.027Z,95990.47
2022-08-01T14:28:56.820Z,95980.69
2022-08-01T14:34:00.785Z,95986.44
2022-08-01T14:39:03.581Z,95995.22
2022-08-01T14:44:07.328Z,95996.81
2022-08-01T14:49:11.548Z,95995.63
2022-08-01T14:54:14.450Z,95992.50
2022-08-01T14:59:21.360Z,95996.28
2022-08-01T15:04:26.602Z,95982.09
2022-08-01T15:09:29.886Z,95986.38
2022-08-01T15:14:51.343Z,95998.00
2022-08-01T15:19:56.977Z,95990.41
2022-08-01T15:25:01.439Z,96002.53
2022-08-01T15:30:05.718Z,96001.13
2022-08-01T15:35:11.485Z,95999.28
2022-08-01T15:40:14.401Z,96002.06
2022-08-01T15:45:45.871Z,96004.94
2022-08-01T15:50:44.192Z,96000.19
2022-08-01T15:55:52.249Z,95993.44
2022-08-01T16:06:02.717Z,95979.06
2022-08-01T16:11:05.515Z,96011.84
2022-08-01T16:16:08.922Z,95994.44
2022-08-01T16:21:12.951Z,95999.72
2022-08-01T16:26:27.647Z,95997.31
2022-08-01T16:31:41.654Z,95996.25
2022-08-01T16:36:56.278Z,95981.06
2022-08-01T16:41:59.283Z,95981.84
2022-08-01T16:47:05.074Z,95985.50
2022-08-01T16:52:10.042Z,95971.81
2022-08-01T16:57:13.243Z,95967.06
2022-08-01T17:02:16.399Z,95971.63
2022-08-01T17:07:20.571Z,95992.59
2022-08-01T17:12:23.507Z,95983.72
2022-08-01T17:17:26.696Z,95999.31
2022-08-01T17:22:30.862Z,95985.56
2022-08-01T17:27:33.685Z,96003.25
2022-08-01T17:32:36.514Z,96000.28
2022-08-01T17:37:40.827Z,95993.50
2022-08-01T17:42:43.846Z,96003.69
2022-08-01T17:47:50.752Z,96000.44
2022-08-01T17:52:55.342Z,96012.44
2022-08-01T17:57:58.131Z,96006.00
2022-08-01T18:03:01.024Z,96008.19
2022-08-01T18:08:07.503Z,95999.13
2022-08-01T18:13:10.849Z,96004.66
2022-08-01T18:18:16.787Z,96013.03
2022-08-01T18:23:22.149Z,96012.81
2022-08-01T18:28:31.253Z,96021.03
2022-08-01T18:33:37.071Z,96016.09
2022-08-01T18:38:43.465Z,96017.22
2022-08-01T18:43:48.597Z,96031.44
2022-08-01T18:48:51.452Z,96027.31
2022-08-01T18:53:57.799Z,96022.88
2022-08-01T18:59:00.624Z,96046.41
2022-08-01T19:04:03.643Z,96046.44
2022-08-01T19:09:07.938Z,96035.38
2022-08-01T19:14:11.814Z,96058.91
2022-08-01T19:19:14.658Z,96067.97
2022-08-01T19:24:31.965Z,96070.59
2022-08-01T19:29:36.509Z,96082.38
2022-08-01T19:34:50.483Z,96090.41
2022-08-01T19:39:54.555Z,96089.34
2022-08-01T19:44:58.968Z,96100.81
2022-08-01T19:50:01.964Z,96102.03
2022-08-01T19:55:09.035Z,96126.47
2022-08-01T20:00:25.091Z,96125.06
2022-08-01T20:05:31.328Z,96130.63
2022-08-01T20:10:38.105Z,96134.84
2022-08-01T20:15:40.964Z,96147.38
2022-08-01T20:20:45.060Z,96155.50
2022-08-01T20:25:52.864Z,96157.63
2022-08-01T20:31:03.522Z,96156.69
2022-08-01T20:36:12.113Z,96151.00
2022-08-01T20:41:29.560Z,96151.91
2022-08-01T20:46:32.683Z,96150.44
2022-08-01T20:51:42.082Z,96157.94
2022-08-01T20:56:57.327Z,96161.00
2022-08-01T21:02:09.383Z,96167.19
2022-08-01T21:07:23.447Z,96171.59
2022-08-01T21:12:29.241Z,96169.75
2022-08-01T21:17:40.827Z,96178.16
2022-08-01T21:22:54.249Z,96179.66
2022-08-01T21:28:01.166Z,96185.88
2022-08-01T21:33:05.825Z,96183.44
2022-08-01T21:38:10.519Z,96180.41
2022-08-01T21:43:15.315Z,96178.59
2022-08-01T21:48:25.834Z,96179.50
2022-08-01T21:53:43.231Z,96173.72
2022-08-01T21:58:57.282Z,96174.06
2022-08-01T22:04:02.216Z,96179.94
2022-08-01T22:09:07.768Z,96174.66
2022-08-01T22:14:16.224Z,96183.00
2022-08-01T22:19:44.235Z,96191.47
2022-08-01T22:24:43.352Z,96184.88
2022-08-01T22:29:47.903Z,96192.19
2022-08-01T22:34:50.776Z,96196.13
2022-08-01T22:39:53.670Z,96189.38
2022-08-01T22:45:05.489Z,96198.66
2022-08-01T22:50:09.238Z,96196.84
2022-08-01T22:55:12.777Z,96199.84
2022-08-01T23:00:17.315Z,96198.78
2022-08-01T23:05:22.681Z,96200.56
2022-08-01T23:10:27.153Z,96202.09
2022-08-01T23:15:32.308Z,96201.69
2022-08-01T23:20:35.581Z,96201.16
2022-08-01T23:25:39.930Z,96197.84
2022-08-01T23:30:44.293Z,96201.00
2022-08-01T23:35:47.216Z,96185.84
2022-08-01T23:40:50.999Z,96195.28
2022-08-01T23:46:02.561Z,96192.09
2022-08-01T23:51:09.378Z,96198.09
2022-08-01T23:56:16.885Z,96195.44
